createdAt,value
2019-02-27T00:02:05.768Z,99396.63
2019-02-27T00:04:35.752Z,99404.41
2019-02-27T00:07:06.120Z,99409.03
2019-02-27T00:09:36.372Z,99404.03
2019-02-27T00:12:06.335Z,99405.70
2019-02-27T00:14:36.334Z,99409.95
2019-02-27T00:17:08.187Z,99409.47
2019-02-27T00:19:37.933Z,99420.50
2019-02-27T00:22:07.919Z,99417.06
2019-02-27T00:24:38.786Z,99417.59
2019-02-27T00:27:08.985Z,99427.54
2019-02-27T00:29:39.342Z,99410.94
2019-02-27T00:32:09.052Z,99417.77
2019-02-27T00:34:38.988Z,99419.55
2019-02-27T00:37:09.191Z,99417.79
2019-02-27T00:39:39.285Z,99412.51
2019-02-27T00:42:09.316Z,99406.48
2019-02-27T00:44:39.296Z,99419.02
2019-02-27T00:47:09.201Z,99431.48
2019-02-27T00:49:39.393Z,99410.38
2019-02-27T00:52:09.425Z,99427.11
2019-02-27T00:54:39.654Z,99422.37
2019-02-27T00:57:09.716Z,99417.31
2019-02-27T00:59:39.689Z,99418.48
2019-02-27T01:02:09.780Z,99425.11
2019-02-27T01:04:39.794Z,99430.70
2019-02-27T01:07:10.063Z,99431.05
2019-02-27T01:09:40.098Z,99433.78
2019-02-27T01:12:10.675Z,99435.81
2019-02-27T01:14:40.858Z,99440.05
2019-02-27T01:17:10.800Z,99436.72
2019-02-27T01:19:42.751Z,99438.47
2019-02-27T01:22:12.495Z,99447.55
2019-02-27T01:24:42.765Z,99439.09
2019-02-27T01:27:12.787Z,99454.05
2019-02-27T01:29:42.971Z,99456.62
2019-02-27T01:32:13.006Z,99463.29
2019-02-27T01:34:44.433Z,99465.48
2019-02-27T01:37:14.982Z,99477.17
2019-02-27T01:39:44.959Z,99474.23
2019-02-27T01:42:15.049Z,99469.48
2019-02-27T01:44:46.557Z,99476.81
2019-02-27T01:47:18.909Z,99477.16
2019-02-27T01:49:49.734Z,99474.58
2019-02-27T01:52:19.747Z,99481.97
2019-02-27T01:54:49.913Z,99483.16
2019-02-27T01:57:20.014Z,99493.12
2019-02-27T01:59:50.426Z,99482.45
2019-02-27T02:02:21.232Z,99482.86
2019-02-27T02:04:53.792Z,99484.92
2019-02-27T02:07:23.010Z,99487.82
2019-02-27T02:09:55.106Z,99490.41
2019-02-27T02:12:28.036Z,99493.83
2019-02-27T02:15:09.438Z,99487.05
2019-02-27T02:18:15.849Z,99507.92
2019-02-27T02:21:19.565Z,99492.92
2019-02-27T02:24:21.624Z,99487.92
2019-02-27T02:27:26.284Z,99491.77
2019-02-27T02:30:37.917Z,99489.98
2019-02-27T02:33:36.017Z,99475.07
2019-02-27T02:36:35.292Z,99487.84
2019-02-27T02:39:32.569Z,99489.56
2019-02-27T02:42:17.483Z,99483.67
2019-02-27T02:45:23.044Z,99485.95
2019-02-27T02:48:04.023Z,99495.48
2019-02-27T02:51:03.073Z,99493.52
2019-02-27T02:54:36.312Z,99494.81
2019-02-27T02:57:37.160Z,99493.52
2019-02-27T03:00:39.227Z,99497.86
2019-02-27T03:03:25.411Z,99477.43
2019-02-27T03:06:58.190Z,99482.69
2019-02-27T03:10:07.363Z,99487.05
2019-02-27T03:13:33.207Z,99496.16
2019-02-27T03:16:13.696Z,99505.27
2019-02-27T03:19:41.259Z,99505.34
2019-02-27T03:22:41.637Z,99509.66
2019-02-27T03:25:42.148Z,99498.96
2019-02-27T03:29:15.784Z,99498.14
2019-02-27T03:32:02.035Z,99508.09
2019-02-27T03:34:52.022Z,99505.95
2019-02-27T03:37:38.159Z,99519.78
2019-02-27T03:40:45.106Z,99522.80
2019-02-27T03:43:45.671Z,99513.98
2019-02-27T03:47:01.808Z,99513.62
2019-02-27T03:50:07.207Z,99511.53
2019-02-27T03:53:26.845Z,99516.75
2019-02-27T03:56:20.162Z,99532.70
2019-02-27T03:59:11.476Z,99534.53
2019-02-27T04:02:22.335Z,99532.06
2019-02-27T04:05:24.166Z,99538.58
2019-02-27T04:08:32.779Z,99540.33
2019-02-27T04:11:05.845Z,99550.68
2019-02-27T04:13:34.988Z,99551.15
2019-02-27T04:16:04.949Z,99549.88
2019-02-27T04:18:33.739Z,99552.91
2019-02-27T04:21:03.736Z,99554.66
2019-02-27T04:23:33.670Z,99550.80
2019-02-27T04:26:05.829Z,99561.59
2019-02-27T04:28:35.236Z,99560.72
2019-02-27T04:31:05.707Z,99548.73
2019-02-27T04:33:35.741Z,99549.61
2019-02-27T04:36:06.378Z,99552.59
2019-02-27T04:38:36.651Z,99559.02
2019-02-27T04:41:06.676Z,99557.73
2019-02-27T04:43:37.036Z,99555.20
2019-02-27T04:46:07.155Z,99566.34
2019-02-27T04:48:37.277Z,99559.96
2019-02-27T04:51:07.417Z,99581.78
2019-02-27T04:53:37.564Z,99567.69
2019-02-27T04:56:08.454Z,99555.31
2019-02-27T04:58:42.751Z,99553.19
2019-02-27T05:01:10.345Z,99551.45
2019-02-27T05:03:40.318Z,99551.87
2019-02-27T05:06:28.961Z,99553.19
2019-02-27T05:09:17.776Z,99555.30
2019-02-27T05:12:06.541Z,99568.97
2019-02-27T05:14:54.957Z,99562.98
2019-02-27T05:17:43.424Z,99567.69
2019-02-27T05:20:31.958Z,99568.97
2019-02-27T05:23:20.562Z,99564.29
2019-02-27T05:26:08.964Z,99560.86
2019-02-27T05:28:57.842Z,99555.70
2019-02-27T05:31:28.761Z,99556.53
2019-02-27T05:33:58.841Z,99546.67
2019-02-27T05:36:31.451Z,99548.38
2019-02-27T05:39:00.778Z,99564.20
2019-02-27T05:41:33.074Z,99546.64
2019-02-27T05:44:02.747Z,99547.46
2019-02-27T05:46:41.911Z,99552.13
2019-02-27T05:49:12.291Z,99545.72
2019-02-27T05:51:42.490Z,99550.89
2019-02-27T05:54:12.842Z,99559.39
2019-02-27T05:56:42.734Z,99556.81
2019-02-27T05:59:12.834Z,99558.91
2019-02-27T06:01:43.287Z,99574.80
2019-02-27T06:04:13.569Z,99549.46
2019-02-27T06:06:45.675Z,99554.14
2019-02-27T06:09:16.325Z,99547.65
2019-02-27T06:11:46.569Z,99552.78
2019-02-27T06:14:21.199Z,99560.97
2019-02-27T06:16:49.306Z,99569.14
2019-02-27T06:19:19.532Z,99559.34
2019-02-27T06:21:49.738Z,99560.16
2019-02-27T06:24:20.075Z,99555.35
2019-02-27T06:26:50.305Z,99559.14
2019-02-27T06:29:23.161Z,99558.24
2019-02-27T06:31:52.390Z,99565.63
2019-02-27T06:34:24.852Z,99566.84
2019-02-27T06:36:54.925Z,99571.11
2019-02-27T06:39:25.034Z,99573.29
2019-02-27T06:41:55.446Z,99564.70
2019-02-27T06:44:25.467Z,99565.08
2019-02-27T06:46:55.596Z,99588.63
2019-02-27T06:49:25.859Z,99568.48
2019-02-27T06:51:56.387Z,99569.34
2019-02-27T06:54:26.676Z,99564.11
2019-02-27T06:56:57.014Z,99558.98
2019-02-27T06:59:27.258Z,99537.51
2019-02-27T07:01:58.374Z,99535.75
2019-02-27T07:04:28.935Z,99525.94
2019-02-27T07:07:00.573Z,99516.45
2019-02-27T07:09:31.046Z,99505.22
2019-02-27T07:12:01.465Z,99490.25
2019-02-27T07:14:31.899Z,99485.42
2019-02-27T07:17:02.246Z,99480.61
2019-02-27T07:19:35.101Z,99504.20
2019-02-27T07:22:06.241Z,99507.95
2019-02-27T07:24:37.695Z,99511.78
2019-02-27T07:27:08.371Z,99521.08
2019-02-27T07:29:38.383Z,99514.78
2019-02-27T07:32:08.755Z,99523.42
2019-02-27T07:34:38.967Z,99521.95
2019-02-27T07:37:10.425Z,99519.68
2019-02-27T07:39:42.188Z,99529.05
2019-02-27T07:44:53.259Z,99525.20
2019-02-27T07:47:24.702Z,99518.10
2019-02-27T07:49:56.236Z,99511.09
2019-02-27T07:52:32.226Z,99506.11
2019-02-27T07:55:00.572Z,99514.52
2019-02-27T07:57:30.799Z,99504.78
2019-02-27T08:00:01.534Z,99511.71
2019-02-27T08:02:33.733Z,99512.76
2019-02-27T08:05:06.477Z,99511.53
2019-02-27T08:07:37.780Z,99528.53
2019-02-27T08:10:12.293Z,99520.43
2019-02-27T08:12:42.818Z,99503.31
2019-02-27T08:15:14.700Z,99503.45
2019-02-27T08:17:57.331Z,99486.73
2019-02-27T08:20:29.462Z,99484.88
2019-02-27T08:23:00.159Z,99503.60
2019-02-27T08:25:30.754Z,99490.52
2019-02-27T08:28:01.016Z,99490.87
2019-02-27T08:30:31.515Z,99489.16
2019-02-27T08:33:02.172Z,99490.73
2019-02-27T08:35:35.435Z,99485.78
2019-02-27T08:38:05.878Z,99488.41
2019-02-27T08:40:38.778Z,99489.00
2019-02-27T08:43:10.256Z,99482.40
2019-02-27T08:45:42.274Z,99475.40
2019-02-27T08:48:17.100Z,99481.56
2019-02-27T08:50:44.775Z,99480.04
2019-02-27T08:53:14.650Z,99484.66
2019-02-27T08:55:44.981Z,99473.73
2019-02-27T08:58:15.227Z,99466.73
2019-02-27T09:00:47.476Z,99474.40
2019-02-27T09:03:20.562Z,99472.66
2019-02-27T09:05:51.090Z,99466.45
2019-02-27T09:08:22.300Z,99475.10
2019-02-27T09:10:52.336Z,99473.49
2019-02-27T09:13:22.415Z,99469.56
2019-02-27T09:15:52.650Z,99469.88
2019-02-27T09:18:23.058Z,99471.45
2019-02-27T09:20:54.148Z,99460.67
2019-02-27T09:23:24.629Z,99463.71
2019-02-27T09:25:57.260Z,99455.97
2019-02-27T09:28:26.315Z,99451.45
2019-02-27T09:30:57.121Z,99445.97
2019-02-27T09:33:27.204Z,99441.33
2019-02-27T09:35:57.534Z,99430.65
2019-02-27T09:38:27.507Z,99438.15
2019-02-27T09:40:57.589Z,99432.81
2019-02-27T09:43:27.953Z,99431.89
2019-02-27T09:45:58.136Z,99425.66
2019-02-27T09:48:28.276Z,99428.30
2019-02-27T09:50:58.700Z,99416.56
2019-02-27T09:53:29.069Z,99405.13
2019-02-27T09:55:59.154Z,99402.73
2019-02-27T09:58:29.366Z,99398.44
2019-02-27T10:01:09.873Z,99387.19
2019-02-27T10:03:40.344Z,99373.24
2019-02-27T10:06:10.757Z,99367.95
2019-02-27T10:08:41.110Z,99367.72
2019-02-27T10:11:11.096Z,99352.30
2019-02-27T10:13:41.429Z,99352.70
2019-02-27T10:16:11.699Z,99349.59
2019-02-27T10:18:42.014Z,99349.33
2019-02-27T10:21:12.732Z,99351.48
2019-02-27T10:23:43.229Z,99347.64
2019-02-27T10:26:13.275Z,99334.63
2019-02-27T10:28:44.105Z,99328.38
2019-02-27T10:31:14.602Z,99330.59
2019-02-27T10:33:44.711Z,99325.91
2019-02-27T10:36:16.260Z,99321.44
2019-02-27T10:38:46.743Z,99308.52
2019-02-27T10:41:17.202Z,99299.36
2019-02-27T10:43:47.085Z,99298.57
2019-02-27T10:46:17.112Z,99296.91
2019-02-27T10:48:47.663Z,99293.58
2019-02-27T10:51:18.757Z,99288.36
2019-02-27T10:53:50.350Z,99280.72
2019-02-27T10:56:21.591Z,99280.09
2019-02-27T10:58:52.542Z,99275.02
2019-02-27T11:01:22.658Z,99266.61
2019-02-27T11:03:54.601Z,99263.42
2019-02-27T11:06:33.473Z,99262.27
2019-02-27T11:08:56.338Z,99261.73
2019-02-27T11:11:26.622Z,99245.38
2019-02-27T11:13:57.285Z,99238.95
2019-02-27T11:16:28.029Z,99230.79
2019-02-27T11:18:58.926Z,99226.92
2019-02-27T11:21:28.899Z,99233.19
2019-02-27T11:23:59.422Z,99234.34
2019-02-27T11:26:33.949Z,99223.41
2019-02-27T11:29:03.351Z,99209.19
2019-02-27T11:31:33.321Z,99209.66
2019-02-27T11:34:05.066Z,99196.94
2019-02-27T11:36:39.066Z,99177.13
2019-02-27T11:39:08.037Z,99168.30
2019-02-27T11:41:39.031Z,99169.59
2019-02-27T11:44:08.989Z,99158.84
2019-02-27T11:46:39.077Z,99165.03
2019-02-27T11:49:09.697Z,99159.00
2019-02-27T11:51:39.738Z,99153.01
2019-02-27T11:54:09.785Z,99154.19
2019-02-27T11:56:39.999Z,99134.94
2019-02-27T11:59:12.947Z,99132.56
2019-02-27T12:01:42.320Z,99125.68
2019-02-27T12:04:13.401Z,99120.50
2019-02-27T12:06:43.700Z,99118.73
2019-02-27T12:09:13.981Z,99121.79
2019-02-27T12:11:48.382Z,99131.87
2019-02-27T12:14:19.920Z,99128.30
2019-02-27T12:16:52.507Z,99122.59
2019-02-27T12:19:22.754Z,99114.03
2019-02-27T12:21:53.057Z,99105.99
2019-02-27T12:24:23.587Z,99094.43
2019-02-27T12:26:54.099Z,99085.73
2019-02-27T12:29:26.520Z,99074.64
2019-02-27T12:31:56.184Z,99088.64
2019-02-27T12:34:26.359Z,99079.63
2019-02-27T12:36:56.534Z,99080.59
2019-02-27T12:39:26.446Z,99073.39
2019-02-27T12:41:56.413Z,99071.44
2019-02-27T12:44:26.883Z,99068.14
2019-02-27T12:46:56.951Z,99064.69
2019-02-27T12:49:27.234Z,99066.92
2019-02-27T12:51:57.447Z,99068.57
2019-02-27T12:54:27.807Z,99078.17
2019-02-27T12:56:57.797Z,99083.30
2019-02-27T12:59:27.914Z,99070.57
2019-02-27T13:01:58.490Z,99066.06
2019-02-27T13:04:29.617Z,99056.89
2019-02-27T13:06:59.705Z,99050.47
2019-02-27T13:09:33.531Z,99047.84
2019-02-27T13:12:03.691Z,99043.32
2019-02-27T13:14:34.642Z,99037.25
2019-02-27T13:17:09.224Z,99040.63
2019-02-27T13:19:39.567Z,99034.33
2019-02-27T13:22:09.617Z,99034.20
2019-02-27T13:24:39.609Z,99032.99
2019-02-27T13:27:09.925Z,99027.86
2019-02-27T13:29:44.539Z,99020.06
2019-02-27T13:32:14.848Z,99013.83
2019-02-27T13:34:48.228Z,99013.95
2019-02-27T13:37:18.738Z,99003.30
2019-02-27T13:39:48.673Z,99001.10
2019-02-27T13:42:19.237Z,98992.02
2019-02-27T13:44:49.436Z,98988.59
2019-02-27T13:47:19.339Z,98989.46
2019-02-27T13:49:49.341Z,98973.64
2019-02-27T13:52:19.563Z,98951.79
2019-02-27T13:54:49.915Z,98953.44
2019-02-27T13:57:24.968Z,98945.95
2019-02-27T13:59:52.612Z,98950.02
2019-02-27T14:02:22.890Z,98944.06
2019-02-27T14:04:53.722Z,98927.58
2019-02-27T14:07:27.191Z,98920.48
2019-02-27T14:09:57.370Z,98903.57
2019-02-27T14:12:29.985Z,98899.95
2019-02-27T14:14:59.684Z,98896.44
2019-02-27T14:17:29.654Z,98898.98
2019-02-27T14:19:59.806Z,98891.93
2019-02-27T14:22:29.953Z,98888.59
2019-02-27T14:25:00.300Z,98881.58
2019-02-27T14:27:30.875Z,98881.00
2019-02-27T14:30:03.482Z,98881.14
2019-02-27T14:32:32.674Z,98879.89
2019-02-27T14:35:02.836Z,98880.49
2019-02-27T14:37:32.994Z,98886.19
2019-02-27T14:40:04.502Z,98886.33
2019-02-27T14:42:35.314Z,98889.09
2019-02-27T14:45:08.814Z,98886.88
2019-02-27T14:47:38.935Z,98889.89
2019-02-27T14:50:10.630Z,98893.03
2019-02-27T14:52:40.914Z,98897.30
2019-02-27T14:55:11.772Z,98894.03
2019-02-27T14:57:42.125Z,98882.86
2019-02-27T15:00:16.086Z,98883.36
2019-02-27T15:02:46.400Z,98876.05
2019-02-27T15:05:16.831Z,98870.99
2019-02-27T15:07:47.336Z,98873.71
2019-02-27T15:10:17.631Z,98869.62
2019-02-27T15:12:48.037Z,98851.78
2019-02-27T15:15:21.000Z,98856.97
2019-02-27T15:17:51.864Z,98858.49
2019-02-27T15:20:22.998Z,98854.95
2019-02-27T15:22:53.791Z,98850.66
2019-02-27T15:25:24.196Z,98846.86
2019-02-27T15:27:58.361Z,98839.98
2019-02-27T15:30:27.547Z,98836.97
2019-02-27T15:32:58.031Z,98829.67
2019-02-27T15:35:28.453Z,98817.03
2019-02-27T15:37:58.537Z,98820.83
2019-02-27T15:40:29.991Z,98808.30
2019-02-27T15:43:00.563Z,98799.84
2019-02-27T15:45:30.617Z,98796.48
2019-02-27T15:48:06.478Z,98800.81
2019-02-27T15:50:34.303Z,98789.75
2019-02-27T15:53:04.987Z,98778.18
2019-02-27T15:55:37.803Z,98774.37
2019-02-27T15:58:07.802Z,98764.36
2019-02-27T16:00:38.146Z,98770.59
2019-02-27T16:03:10.678Z,98756.55
2019-02-27T16:05:40.249Z,98749.64
2019-02-27T16:08:11.178Z,98741.52
2019-02-27T16:10:43.725Z,98734.59
2019-02-27T16:13:14.053Z,98736.28
2019-02-27T16:15:44.720Z,98733.20
2019-02-27T16:18:15.122Z,98718.95
2019-02-27T16:20:47.097Z,98702.14
2019-02-27T16:23:18.636Z,98699.84
2019-02-27T16:25:52.829Z,98688.05
2019-02-27T16:28:21.291Z,98680.19
2019-02-27T16:30:52.021Z,98670.62
2019-02-27T16:33:24.059Z,98662.26
2019-02-27T16:35:54.764Z,98649.58
2019-02-27T16:38:25.415Z,98642.89
2019-02-27T16:40:55.827Z,98635.19
2019-02-27T16:43:26.509Z,98624.35
2019-02-27T16:45:56.715Z,98617.91
2019-02-27T16:48:27.126Z,98619.23
2019-02-27T16:50:57.426Z,98617.20
2019-02-27T16:53:29.685Z,98615.61
2019-02-27T16:56:00.117Z,98613.81
2019-02-27T16:58:32.967Z,98601.27
2019-02-27T17:01:02.714Z,98596.27
2019-02-27T17:03:32.932Z,98590.25
2019-02-27T17:06:03.138Z,98601.20
2019-02-27T17:08:35.678Z,98597.11
2019-02-27T17:11:05.538Z,98585.89
2019-02-27T17:13:35.679Z,98576.86
2019-02-27T17:16:07.132Z,98576.52
2019-02-27T17:18:38.287Z,98570.92
2019-02-27T17:21:08.731Z,98560.22
2019-02-27T17:23:43.793Z,98554.55
2019-02-27T17:26:12.606Z,98554.08
2019-02-27T17:28:42.845Z,98547.20
2019-02-27T17:31:13.121Z,98538.13
2019-02-27T17:33:43.613Z,98534.61
2019-02-27T17:36:14.012Z,98536.20
2019-02-27T17:38:45.261Z,98528.51
2019-02-27T17:41:17.008Z,98531.94
2019-02-27T17:43:47.720Z,98531.64
2019-02-27T17:46:20.499Z,98515.98
2019-02-27T17:48:50.176Z,98509.36
2019-02-27T17:51:20.362Z,98504.63
2019-02-27T17:53:50.762Z,98505.95
2019-02-27T17:56:21.390Z,98500.89
2019-02-27T17:58:51.961Z,98492.24
2019-02-27T18:01:25.014Z,98492.24
2019-02-27T18:03:54.372Z,98491.30
2019-02-27T18:06:24.996Z,98483.51
2019-02-27T18:08:55.822Z,98475.33
2019-02-27T18:11:26.437Z,98467.55
2019-02-27T18:13:57.135Z,98455.52
2019-02-27T18:16:27.986Z,98455.59
2019-02-27T18:18:58.815Z,98447.60
2019-02-27T18:21:33.251Z,98440.30
2019-02-27T18:24:01.367Z,98439.52
2019-02-27T18:26:31.652Z,98430.34
2019-02-27T18:29:07.739Z,98427.03
2019-02-27T18:31:37.274Z,98420.92
2019-02-27T18:34:07.726Z,98421.61
2019-02-27T18:36:42.876Z,98411.58
2019-02-27T18:39:10.153Z,98404.64
2019-02-27T18:41:40.306Z,98397.67
2019-02-27T18:44:11.355Z,98392.29
2019-02-27T18:46:41.463Z,98385.41
2019-02-27T18:49:11.660Z,98386.08
2019-02-27T18:51:42.273Z,98386.31
2019-02-27T18:54:12.473Z,98370.83
2019-02-27T18:56:42.897Z,98384.12
2019-02-27T18:59:13.439Z,98374.98
2019-02-27T19:01:45.204Z,98379.33
2019-02-27T19:04:16.029Z,98366.05
2019-02-27T19:06:47.016Z,98372.02
2019-02-27T19:09:17.158Z,98372.50
2019-02-27T19:11:50.901Z,98358.83
2019-02-27T19:14:19.733Z,98348.61
2019-02-27T19:16:52.165Z,98335.27
2019-02-27T19:19:22.832Z,98335.22
2019-02-27T19:21:52.868Z,98316.25
2019-02-27T19:24:26.665Z,98307.05
2019-02-27T19:26:55.367Z,98305.58
2019-02-27T19:29:25.572Z,98302.89
2019-02-27T19:31:55.920Z,98300.94
2019-02-27T19:34:25.987Z,98282.45
2019-02-27T19:36:56.261Z,98277.30
2019-02-27T19:39:26.732Z,98284.27
2019-02-27T19:41:56.964Z,98271.41
2019-02-27T19:44:29.200Z,98264.63
2019-02-27T19:46:59.579Z,98261.25
2019-02-27T19:49:30.018Z,98253.92
2019-02-27T19:52:00.187Z,98245.38
2019-02-27T19:54:30.257Z,98242.25
2019-02-27T19:57:00.827Z,98226.69
2019-02-27T19:59:31.574Z,98224.38
2019-02-27T20:02:01.731Z,98219.63
2019-02-27T20:04:31.954Z,98211.47
2019-02-27T20:07:02.539Z,98199.86
2019-02-27T20:09:32.841Z,98183.08
2019-02-27T20:12:03.287Z,98179.37
2019-02-27T20:14:36.669Z,98158.72
2019-02-27T20:17:07.146Z,98160.07
2019-02-27T20:19:37.599Z,98155.55
2019-02-27T20:22:07.810Z,98149.25
2019-02-27T20:24:38.276Z,98153.45
2019-02-27T20:27:09.204Z,98146.47
2019-02-27T20:29:43.313Z,98121.83
2019-02-27T20:32:13.751Z,98121.83
2019-02-27T20:34:45.899Z,98116.17
2019-02-27T20:37:15.782Z,98109.30
2019-02-27T20:39:45.776Z,98104.72
2019-02-27T20:42:15.906Z,98094.34
2019-02-27T20:44:46.817Z,98087.51
2019-02-27T20:47:16.902Z,98085.69
2019-02-27T20:49:48.043Z,98093.38
2019-02-27T20:52:18.205Z,98083.42
2019-02-27T20:54:48.394Z,98083.42
2019-02-27T20:57:18.927Z,98072.66
2019-02-27T20:59:49.028Z,98058.66
2019-02-27T21:02:19.696Z,98050.20
2019-02-27T21:04:50.497Z,98046.97
2019-02-27T21:07:22.411Z,98036.33
2019-02-27T21:09:52.452Z,98025.93
2019-02-27T21:12:23.120Z,98024.23
2019-02-27T21:14:55.163Z,98009.71
2019-02-27T21:17:25.150Z,98001.91
2019-02-27T21:19:55.258Z,97994.03
2019-02-27T21:22:27.760Z,97998.76
2019-02-27T21:24:57.367Z,97999.02
2019-02-27T21:27:28.481Z,97990.55
2019-02-27T21:29:58.925Z,97989.63
2019-02-27T21:32:29.063Z,97970.67
2019-02-27T21:34:58.938Z,97969.06
2019-02-27T21:37:28.873Z,97963.95
2019-02-27T21:40:02.116Z,97967.77
2019-02-27T21:42:32.717Z,97961.75
2019-02-27T21:45:03.605Z,97946.26
2019-02-27T21:47:34.686Z,97953.47
2019-02-27T21:50:07.146Z,97941.84
2019-02-27T21:52:37.443Z,97931.14
2019-02-27T21:55:12.549Z,97929.28
2019-02-27T21:57:40.255Z,97916.12
2019-02-27T22:00:14.000Z,97918.23
2019-02-27T22:02:44.978Z,97904.16
2019-02-27T22:05:18.518Z,97899.47
2019-02-27T22:07:47.828Z,97897.86
2019-02-27T22:10:19.451Z,97894.05
2019-02-27T22:12:49.639Z,97883.66
2019-02-27T22:15:24.966Z,97888.20
2019-02-27T22:17:54.998Z,97884.33
2019-02-27T22:20:25.802Z,97866.27
2019-02-27T22:22:56.794Z,97856.25
2019-02-27T22:25:31.031Z,97845.19
2019-02-27T22:27:58.841Z,97837.31
2019-02-27T22:30:31.679Z,97829.57
2019-02-27T22:33:00.352Z,97825.16
2019-02-27T22:35:30.586Z,97812.92
2019-02-27T22:38:00.558Z,97799.70
2019-02-27T22:40:30.670Z,97785.48
2019-02-27T22:43:00.630Z,97781.86
2019-02-27T22:45:30.451Z,97787.03
2019-02-27T22:48:00.329Z,97773.08
2019-02-27T22:50:30.817Z,97773.11
2019-02-27T22:53:00.973Z,97768.02
2019-02-27T22:55:30.921Z,97758.55
2019-02-27T22:58:00.823Z,97752.07
2019-02-27T23:01:03.915Z,97745.87
2019-02-27T23:03:49.669Z,97735.27
2019-02-27T23:06:20.135Z,97728.75
2019-02-27T23:08:50.322Z,97729.47
2019-02-27T23:11:20.157Z,97728.77
2019-02-27T23:13:50.192Z,97730.63
2019-02-27T23:16:21.290Z,97724.83
2019-02-27T23:18:51.093Z,97721.70
2019-02-27T23:21:21.074Z,97720.20
2019-02-27T23:23:51.039Z,97712.52
2019-02-27T23:26:21.122Z,97702.81
2019-02-27T23:28:51.089Z,97694.02
2019-02-27T23:31:23.387Z,97682.61
2019-02-27T23:33:53.419Z,97682.66
2019-02-27T23:36:23.754Z,97672.59
2019-02-27T23:38:53.966Z,97664.52
2019-02-27T23:41:24.001Z,97659.73
2019-02-27T23:43:53.988Z,97655.14
2019-02-27T23:46:24.132Z,97642.47
2019-02-27T23:48:54.395Z,97639.34
2019-02-27T23:51:24.846Z,97628.50
2019-02-27T23:53:55.087Z,97625.52
2019-02-27T23:56:25.021Z,97615.59
2019-02-27T23:58:55.068Z,97609.27
